createdAt,value
2023-05-05T00:01:47.047Z,4.20
2023-05-05T00:06:49.621Z,4.00
2023-05-05T00:11:52.244Z,3.80
2023-05-05T00:16:54.917Z,3.95
2023-05-05T00:21:57.459Z,3.17
2023-05-05T00:26:59.892Z,5.25
2023-05-05T00:32:02.360Z,7.00
2023-05-05T00:37:04.876Z,14.60
2023-05-05T00:42:07.578Z,18.50
2023-05-05T00:47:10.247Z,18.75
2023-05-05T00:52:12.731Z,20.20
2023-05-05T00:57:15.285Z,22.05
2023-05-05T01:02:17.809Z,19.98
2023-05-05T01:07:26.118Z,13.68
2023-05-05T01:12:34.742Z,10.38
2023-05-05T01:17:43.009Z,6.68
2023-05-05T01:22:59.839Z,5.97
2023-05-05T01:28:27.300Z,5.68
2023-05-05T01:33:37.262Z,6.28
2023-05-05T01:38:44.455Z,6.05
2023-05-05T01:43:50.519Z,7.40
2023-05-05T01:48:56.392Z,6.18
2023-05-05T01:54:03.023Z,6.97
2023-05-05T01:59:07.320Z,7.18
2023-05-05T02:04:11.270Z,6.65
2023-05-05T02:09:15.543Z,5.40
2023-05-05T02:14:20.807Z,5.07
2023-05-05T02:19:28.940Z,3.30
2023-05-05T02:24:31.400Z,3.55
2023-05-05T02:29:45.362Z,3.22
2023-05-05T02:34:51.069Z,3.15
2023-05-05T02:40:09.311Z,2.80
2023-05-05T02:45:16.136Z,3.30
2023-05-05T02:50:22.117Z,3.20
2023-05-05T02:55:55.152Z,3.60
2023-05-05T03:01:11.163Z,3.00
2023-05-05T03:06:27.603Z,3.88
2023-05-05T03:11:45.346Z,10.00
2023-05-05T03:16:49.746Z,7.93
2023-05-05T03:21:53.289Z,9.68
2023-05-05T03:26:55.996Z,10.55
2023-05-05T03:32:01.780Z,8.68
2023-05-05T03:37:05.549Z,8.50
2023-05-05T03:42:08.509Z,7.63
2023-05-05T03:47:11.878Z,7.38
2023-05-05T03:52:15.438Z,6.85
2023-05-05T03:57:19.671Z,4.95
2023-05-05T04:02:22.311Z,6.68
2023-05-05T04:07:25.291Z,4.95
2023-05-05T04:17:32.316Z,4.47
2023-05-05T04:22:34.989Z,5.32
2023-05-05T04:27:38.204Z,5.13
2023-05-05T04:32:41.189Z,4.03
2023-05-05T04:37:45.231Z,3.80
2023-05-05T04:42:48.543Z,4.40
2023-05-05T04:47:51.223Z,4.40
2023-05-05T04:52:53.860Z,5.53
2023-05-05T04:57:56.479Z,4.65
2023-05-05T05:02:59.555Z,4.55
2023-05-05T05:08:02.100Z,3.83
2023-05-05T05:13:04.616Z,4.97
2023-05-05T05:18:07.398Z,5.10
2023-05-05T05:23:10.102Z,6.97
2023-05-05T05:28:17.430Z,5.47
2023-05-05T05:33:27.881Z,4.22
2023-05-05T05:38:32.387Z,3.83
2023-05-05T05:43:37.766Z,4.47
2023-05-05T05:48:41.132Z,4.43
2023-05-05T05:53:44.133Z,4.80
2023-05-05T05:58:48.817Z,5.18
2023-05-05T06:03:53.021Z,5.05
2023-05-05T06:08:56.470Z,5.63
2023-05-05T06:13:59.999Z,4.95
2023-05-05T06:19:02.710Z,5.22
2023-05-05T06:24:05.876Z,5.22
2023-05-05T06:29:12.202Z,5.18
2023-05-05T06:34:27.092Z,4.70
2023-05-05T06:39:29.642Z,4.70
2023-05-05T06:44:32.132Z,4.57
2023-05-05T06:49:34.530Z,4.75
2023-05-05T06:54:37.056Z,4.32
2023-05-05T06:59:39.446Z,5.65
2023-05-05T07:04:41.923Z,4.72
2023-05-05T07:09:45.321Z,4.90
2023-05-05T07:14:47.717Z,3.92
2023-05-05T07:19:51.601Z,4.38
2023-05-05T07:24:54.228Z,4.15
2023-05-05T07:29:56.939Z,4.07
2023-05-05T07:34:59.369Z,3.95
2023-05-05T07:40:01.862Z,3.88
2023-05-05T07:45:06.730Z,3.70
2023-05-05T07:50:11.252Z,3.92
2023-05-05T07:55:14.046Z,3.90
2023-05-05T08:00:19.694Z,3.80
2023-05-05T08:05:22.165Z,4.38
2023-05-05T08:10:24.659Z,4.20
2023-05-05T08:15:27.172Z,3.40
2023-05-05T08:20:30.039Z,3.97
2023-05-05T08:25:32.655Z,4.72
2023-05-05T08:30:36.468Z,3.97
2023-05-05T08:35:39.089Z,4.35
2023-05-05T08:40:41.923Z,3.50
2023-05-05T08:50:59.794Z,3.70
2023-05-05T08:56:05.178Z,4.00
2023-05-05T09:01:08.187Z,4.10
2023-05-05T09:06:11.621Z,4.53
2023-05-05T09:11:14.302Z,3.90
2023-05-05T09:16:17.027Z,4.00
2023-05-05T09:21:25.100Z,4.15
2023-05-05T09:26:31.139Z,3.55
2023-05-05T09:31:35.851Z,3.17
2023-05-05T09:36:43.579Z,3.30
2023-05-05T09:41:47.140Z,2.95
2023-05-05T09:46:52.246Z,4.20
2023-05-05T09:51:55.478Z,2.92
2023-05-05T09:56:58.119Z,3.75
2023-05-05T10:02:13.039Z,3.33
2023-05-05T10:07:25.243Z,3.35
2023-05-05T10:12:30.383Z,2.80
2023-05-05T10:17:37.421Z,2.95
2023-05-05T10:22:51.933Z,3.17
2023-05-05T10:27:56.318Z,2.90
2023-05-05T10:33:30.015Z,2.20
2023-05-05T10:38:33.506Z,2.50
2023-05-05T10:43:36.973Z,2.72
2023-05-05T10:48:46.408Z,3.20
2023-05-05T10:54:02.408Z,2.67
2023-05-05T10:59:39.906Z,2.10
2023-05-05T11:04:42.526Z,2.72
2023-05-05T11:09:56.053Z,2.42
2023-05-05T11:15:26.904Z,2.55
2023-05-05T11:20:35.656Z,2.65
2023-05-05T11:25:41.275Z,2.28
2023-05-05T11:30:59.716Z,2.55
2023-05-05T11:36:14.674Z,2.60
2023-05-05T11:41:50.543Z,2.15
2023-05-05T11:46:52.915Z,2.40
2023-05-05T11:52:09.514Z,2.45
2023-05-05T11:57:12.038Z,3.15
2023-05-05T12:02:17.641Z,2.95
2023-05-05T12:07:22.483Z,2.55
2023-05-05T12:12:36.072Z,3.00
2023-05-05T12:17:46.189Z,2.60
2023-05-05T12:22:49.073Z,2.28
2023-05-05T12:27:54.367Z,2.30
2023-05-05T12:33:05.561Z,2.30
2023-05-05T12:38:08.187Z,2.17
2023-05-05T12:43:33.041Z,2.70
2023-05-05T12:48:40.590Z,2.53
2023-05-05T12:53:43.824Z,2.40
2023-05-05T12:58:49.206Z,2.42
2023-05-05T13:04:12.480Z,1.95
2023-05-05T13:09:34.157Z,2.20
2023-05-05T13:14:36.924Z,2.17
2023-05-05T13:19:46.522Z,2.03
2023-05-05T13:24:52.390Z,2.55
2023-05-05T13:30:10.060Z,2.03
2023-05-05T13:35:14.021Z,2.22
2023-05-05T13:40:18.738Z,3.05
2023-05-05T13:45:21.582Z,2.92
2023-05-05T13:50:24.288Z,2.97
2023-05-05T13:55:28.732Z,2.70
2023-05-05T14:00:31.945Z,2.53
2023-05-05T14:05:35.020Z,2.65
2023-05-05T14:10:37.544Z,2.50
2023-05-05T14:15:40.058Z,2.53
2023-05-05T14:20:43.008Z,2.88
2023-05-05T14:25:45.581Z,3.60
2023-05-05T14:30:48.046Z,2.50
2023-05-05T14:35:50.589Z,2.55
2023-05-05T14:40:53.187Z,2.50
2023-05-05T14:45:58.519Z,3.25
2023-05-05T14:51:01.333Z,3.35
2023-05-05T14:56:04.191Z,2.92
2023-05-05T15:01:06.751Z,2.50
2023-05-05T15:06:09.370Z,2.83
2023-05-05T15:11:11.966Z,2.08
2023-05-05T15:16:14.571Z,3.22
2023-05-05T15:21:17.224Z,3.22
2023-05-05T15:26:19.838Z,2.60
2023-05-05T15:31:22.353Z,2.75
2023-05-05T15:36:24.995Z,3.13
2023-05-05T15:41:29.635Z,2.92
2023-05-05T15:46:35.749Z,3.00
2023-05-05T15:51:38.651Z,2.72
2023-05-05T15:56:41.290Z,3.65
2023-05-05T16:01:43.833Z,4.10
2023-05-05T16:06:46.313Z,3.95
2023-05-05T16:11:48.827Z,3.75
2023-05-05T16:16:51.355Z,3.92
2023-05-05T16:21:54.528Z,3.33
2023-05-05T16:26:57.030Z,4.30
2023-05-05T16:31:59.656Z,4.55
2023-05-05T16:37:02.239Z,4.85
2023-05-05T16:42:04.906Z,4.93
2023-05-05T16:47:07.384Z,4.53
2023-05-05T16:52:09.903Z,4.97
2023-05-05T16:57:13.085Z,4.75
2023-05-05T17:02:15.662Z,4.70
2023-05-05T17:07:18.152Z,4.85
2023-05-05T17:12:20.786Z,5.88
2023-05-05T17:17:23.387Z,6.50
2023-05-05T17:22:26.041Z,7.40
2023-05-05T17:27:28.502Z,8.23
2023-05-05T17:32:31.122Z,6.55
2023-05-05T17:37:33.988Z,6.65
2023-05-05T17:42:36.458Z,6.72
2023-05-05T17:47:38.976Z,6.97
2023-05-05T17:52:41.490Z,8.23
2023-05-05T17:57:43.956Z,10.30
2023-05-05T18:02:46.650Z,11.25
2023-05-05T18:07:49.129Z,9.95
2023-05-05T18:12:51.750Z,10.10
2023-05-05T18:17:54.448Z,10.30
2023-05-05T18:22:56.878Z,8.68
2023-05-05T18:27:59.603Z,9.20
2023-05-05T18:33:02.645Z,8.80
2023-05-05T18:38:05.644Z,8.43
2023-05-05T18:43:08.175Z,7.50
2023-05-05T18:48:10.654Z,10.15
2023-05-05T18:53:15.003Z,13.13
2023-05-05T18:58:17.851Z,9.27
2023-05-05T19:03:20.739Z,7.95
2023-05-05T19:08:23.282Z,10.63
2023-05-05T19:13:25.903Z,8.40
2023-05-05T19:18:28.439Z,8.85
2023-05-05T19:23:31.252Z,10.38
2023-05-05T19:28:33.841Z,9.32
2023-05-05T19:33:36.775Z,10.52
2023-05-05T19:38:44.578Z,9.50
2023-05-05T19:43:47.324Z,9.80
2023-05-05T19:48:49.794Z,8.45
2023-05-05T19:53:52.307Z,10.13
2023-05-05T19:59:01.037Z,9.63
2023-05-05T20:04:03.959Z,9.57
2023-05-05T20:09:06.624Z,10.55
2023-05-05T20:14:09.309Z,10.25
2023-05-05T20:19:11.810Z,9.48
2023-05-05T20:24:14.245Z,9.90
2023-05-05T20:29:18.187Z,9.85
2023-05-05T20:34:20.690Z,11.63
2023-05-05T20:39:23.170Z,10.35
2023-05-05T20:44:25.904Z,11.20
2023-05-05T20:49:28.407Z,11.48
2023-05-05T20:54:34.510Z,15.30
2023-05-05T20:59:38.231Z,25.85
2023-05-05T21:04:40.754Z,26.27
2023-05-05T21:09:46.572Z,27.38
2023-05-05T21:14:49.054Z,25.30
2023-05-05T21:19:52.783Z,24.48
2023-05-05T21:24:55.670Z,28.48
2023-05-05T21:29:58.195Z,49.22
2023-05-05T21:35:00.899Z,49.58
2023-05-05T21:40:03.477Z,46.45
2023-05-05T21:45:08.415Z,42.55
2023-05-05T21:50:12.372Z,35.85
2023-05-05T21:55:15.042Z,28.33
2023-05-05T22:00:17.687Z,20.48
2023-05-05T22:05:20.448Z,21.45
2023-05-05T22:10:23.648Z,17.77
2023-05-05T22:15:30.016Z,21.45
2023-05-05T22:20:35.690Z,18.20
2023-05-05T22:25:38.201Z,14.65
2023-05-05T22:30:40.983Z,14.68
2023-05-05T22:35:43.486Z,17.63
2023-05-05T22:40:46.317Z,16.98
2023-05-05T22:45:48.879Z,17.35
2023-05-05T22:50:51.809Z,16.42
2023-05-05T22:55:54.354Z,16.73
2023-05-05T23:00:57.122Z,14.93
2023-05-05T23:05:59.774Z,16.90
2023-05-05T23:11:02.271Z,17.60
2023-05-05T23:16:04.991Z,14.23
2023-05-05T23:21:07.619Z,11.48
2023-05-05T23:26:10.129Z,11.50
2023-05-05T23:31:12.634Z,9.52
2023-05-05T23:36:15.137Z,8.00
2023-05-05T23:41:19.232Z,7.28
2023-05-05T23:46:22.098Z,7.18
2023-05-05T23:51:24.854Z,4.80
2023-05-05T23:56:27.472Z,5.93
